ELN weather

Bowers Field
Ellensburg, Washington, United States

Public forecast

Using degrees Fahrenheit for public forecast. Weather courtesy of forecast.io.

METAR (pilot weather report)

Retrieved 2019/05/23 11:53 UTC (20 minutes ago):

KELN 231153Z AUTO 35003KT 10SM CLR 08/05 A3002 RMK AO2 SLP162 T00780050 10161 20072 50001

TAF (pilot weather forecast)

Closest forecast is Pangborn Memorial Airport, 25.6 nm (47.5 km) NNE. Retrieved 2019/05/23 12:24 UTC (0 seconds ago):

TAF KEAT 231122Z 2312/2412 29010KT P6SM SCT100 FM232300 30011KT P6SM VCSH BKN090 OVC120 FM240200 30008KT P6SM SCT120